Time,TemperatureF,DewpointF,PressureIn,WindDirection,WindDirectionDegrees,WindSpeedMPH,WindSpeedGustMPH,Humidity,HourlyPrecipIn,Conditions,Clouds,dailyrainin,SoftwareType,DateUTC
2013-04-27 00:02:00,70.0,65.0,29.65,SSE,147,1.0,7.0,85,0.00,,,0.00,,2013-04-27 05:02:00,
2013-04-27 00:12:00,70.0,65.0,29.65,SSE,147,1.0,7.0,85,0.00,,,0.00,,2013-04-27 05:12:00,
2013-04-27 00:22:00,70.0,65.0,29.65,South,184,5.0,14.0,85,0.00,,,0.00,,2013-04-27 05:22:00,
2013-04-27 00:32:00,71.0,66.0,29.66,SSE,152,5.0,15.0,84,0.00,,,0.00,,2013-04-27 05:32:00,
2013-04-27 00:42:00,71.0,66.0,29.66,SSE,152,5.0,15.0,84,0.00,,,0.00,,2013-04-27 05:42:00,
2013-04-27 00:52:00,71.0,66.0,29.66,SSE,167,3.0,9.0,83,0.00,,,0.00,,2013-04-27 05:52:00,
2013-04-27 01:02:00,71.0,66.0,29.66,SSE,165,4.0,8.0,83,0.00,,,0.00,,2013-04-27 06:02:00,
2013-04-27 01:12:00,71.0,66.0,29.66,SSE,165,4.0,8.0,83,0.00,,,0.00,,2013-04-27 06:12:00,
2013-04-27 01:22:00,71.0,66.0,29.66,South,170,5.0,10.0,84,0.00,,,0.00,,2013-04-27 06:22:00,
2013-04-27 01:32:00,70.0,65.0,29.65,SE,136,5.0,13.0,85,0.00,,,0.00,,2013-04-27 06:32:00,
2013-04-27 01:42:00,70.0,65.0,29.65,SE,136,5.0,13.0,85,0.00,,,0.00,,2013-04-27 06:42:00,
2013-04-27 01:52:00,70.0,65.0,29.65,SSE,155,4.0,13.0,85,0.00,,,0.00,,2013-04-27 06:52:00,
2013-04-27 02:01:00,70.0,65.0,29.66,SSE,157,4.0,11.0,85,0.00,,,0.00,,2013-04-27 07:01:00,
2013-04-27 02:11:00,70.0,65.0,29.66,SSE,157,4.0,11.0,85,0.00,,,0.00,,2013-04-27 07:11:00,
2013-04-27 02:21:00,70.0,65.0,29.66,SE,140,4.0,10.0,85,0.00,,,0.00,,2013-04-27 07:21:00,
2013-04-27 02:32:00,70.0,65.0,29.68,SSW,201,3.0,7.0,85,0.00,,,0.00,,2013-04-27 07:32:00,
2013-04-27 02:42:00,70.0,65.0,29.68,SSW,201,3.0,7.0,85,0.00,,,0.00,,2013-04-27 07:42:00,
2013-04-27 02:52:00,70.0,65.0,29.69,SW,225,1.0,6.0,84,0.00,,,0.00,,2013-04-27 07:52:00,
2013-04-27 03:01:00,70.0,65.0,29.69,WSW,248,5.0,12.0,84,0.00,,,0.00,,2013-04-27 08:01:00,
2013-04-27 03:11:00,70.0,65.0,29.69,WSW,248,5.0,12.0,84,0.00,,,0.00,,2013-04-27 08:11:00,
2013-04-27 03:21:00,70.0,65.0,29.67,South,170,3.0,8.0,85,0.00,,,0.00,,2013-04-27 08:21:00,
2013-04-27 03:33:00,70.0,65.0,29.67,SSE,165,5.0,11.0,85,0.00,,,0.00,,2013-04-27 08:33:00,
2013-04-27 03:41:00,70.0,65.0,29.67,SSE,165,5.0,11.0,85,0.00,,,0.00,,2013-04-27 08:41:00,
2013-04-27 03:52:00,70.0,66.0,29.66,South,190,2.0,8.0,86,0.00,,,0.00,,2013-04-27 08:52:00,
2013-04-27 04:01:00,69.0,65.0,29.66,SSW,193,3.0,9.0,87,0.00,,,0.00,,2013-04-27 09:01:00,
2013-04-27 04:11:00,69.0,65.0,29.66,SSW,193,3.0,9.0,87,0.00,,,0.00,,2013-04-27 09:11:00,
2013-04-27 04:21:00,69.0,65.0,29.66,SSW,212,3.0,9.0,88,0.00,,,0.00,,2013-04-27 09:21:00,
2013-04-27 04:33:00,68.0,65.0,29.66,SSE,164,2.0,6.0,89,0.00,,,0.00,,2013-04-27 09:33:00,
2013-04-27 04:42:00,68.0,65.0,29.66,SSE,164,2.0,6.0,89,0.00,,,0.00,,2013-04-27 09:42:00,
2013-04-27 04:53:00,68.0,65.0,29.66,South,181,2.0,9.0,89,0.00,,,0.00,,2013-04-27 09:53:00,
2013-04-27 05:02:00,68.0,65.0,29.66,SSE,155,1.0,6.0,90,0.00,,,0.00,,2013-04-27 10:02:00,
2013-04-27 05:12:00,68.0,65.0,29.66,SSE,155,1.0,6.0,90,0.00,,,0.00,,2013-04-27 10:12:00,
2013-04-27 05:22:00,67.0,64.0,29.65,SSE,148,2.0,9.0,90,0.00,,,0.00,,2013-04-27 10:22:00,
2013-04-27 05:32:00,67.0,64.0,29.65,SSE,159,2.0,7.0,91,0.00,,,0.00,,2013-04-27 10:32:00,
2013-04-27 05:42:00,67.0,64.0,29.65,SSE,159,2.0,7.0,91,0.00,,,0.00,,2013-04-27 10:42:00,
2013-04-27 05:52:00,67.0,64.0,29.65,SSE,150,3.0,7.0,91,0.00,,,0.00,,2013-04-27 10:52:00,
2013-04-27 06:02:00,67.0,65.0,29.65,SSE,164,3.0,8.0,92,0.00,,,0.00,,2013-04-27 11:02:00,
2013-04-27 06:11:00,67.0,65.0,29.65,SSE,164,3.0,8.0,92,0.00,,,0.00,,2013-04-27 11:11:00,
2013-04-27 06:22:00,67.0,65.0,29.66,SSE,164,2.0,10.0,93,0.00,,,0.00,,2013-04-27 11:22:00,
2013-04-27 06:32:00,66.0,64.0,29.66,SSE,160,2.0,7.0,93,0.00,,,0.00,,2013-04-27 11:32:00,
2013-04-27 06:41:00,66.0,64.0,29.66,SSE,160,2.0,7.0,93,0.00,,,0.00,,2013-04-27 11:41:00,
2013-04-27 06:52:00,66.0,64.0,29.67,SSW,205,1.0,4.0,94,0.00,,,0.00,,2013-04-27 11:52:00,
2013-04-27 07:01:00,66.0,64.0,29.67,South,176,1.0,6.0,94,0.00,,,0.00,,2013-04-27 12:01:00,
2013-04-27 07:11:00,66.0,64.0,29.67,South,176,1.0,6.0,94,0.00,,,0.00,,2013-04-27 12:11:00,
2013-04-27 07:22:00,66.0,64.0,29.68,SSE,157,1.0,5.0,94,0.00,,,0.00,,2013-04-27 12:22:00,
2013-04-27 07:32:00,66.0,64.0,29.69,SW,229,3.0,6.0,94,0.00,,,0.00,,2013-04-27 12:32:00,
2013-04-27 07:42:00,66.0,64.0,29.69,SW,229,3.0,6.0,94,0.00,,,0.00,,2013-04-27 12:42:00,
2013-04-27 07:52:00,64.0,59.0,29.71,WNW,301,2.0,11.0,83,0.00,,,0.00,,2013-04-27 12:52:00,
2013-04-27 08:02:00,63.0,58.0,29.72,NNW,331,3.0,8.0,83,0.00,,,0.00,,2013-04-27 13:02:00,
2013-04-27 08:11:00,63.0,58.0,29.72,NNW,331,3.0,8.0,83,0.00,,,0.00,,2013-04-27 13:11:00,
2013-04-27 08:21:00,62.0,57.0,29.72,West,263,4.0,11.0,84,0.00,,,0.00,,2013-04-27 13:21:00,
2013-04-27 08:32:00,62.0,58.0,29.73,WNW,296,2.0,10.0,86,0.00,,,0.00,,2013-04-27 13:32:00,
2013-04-27 08:42:00,62.0,58.0,29.73,WNW,296,2.0,10.0,86,0.00,,,0.00,,2013-04-27 13:42:00,
2013-04-27 08:52:00,62.0,58.0,29.73,WNW,290,2.0,12.0,86,0.00,,,0.00,,2013-04-27 13:52:00,
2013-04-27 09:02:00,63.0,58.0,29.73,West,266,1.0,8.0,85,0.00,,,0.00,,2013-04-27 14:02:00,
2013-04-27 09:11:00,63.0,58.0,29.73,West,266,1.0,8.0,85,0.00,,,0.00,,2013-04-27 14:11:00,
2013-04-27 09:21:00,63.0,58.0,29.74,WNW,290,1.0,8.0,85,0.00,,,0.00,,2013-04-27 14:21:00,
2013-04-27 09:31:00,65.0,60.0,29.74,NNW,333,2.0,8.0,83,0.00,,,0.00,,2013-04-27 14:31:00,
2013-04-27 09:42:00,65.0,60.0,29.74,NNW,333,2.0,8.0,83,0.00,,,0.00,,2013-04-27 14:42:00,
2013-04-27 09:52:00,66.0,60.0,29.74,NNW,329,1.0,7.0,82,0.00,,,0.00,,2013-04-27 14:52:00,
2013-04-27 10:01:00,66.0,59.0,29.74,West,280,3.0,9.0,78,0.00,,,0.00,,2013-04-27 15:01:00,
2013-04-27 10:12:00,66.0,59.0,29.74,West,280,3.0,9.0,78,0.00,,,0.00,,2013-04-27 15:12:00,
2013-04-27 10:22:00,67.0,60.0,29.74,WNW,296,1.0,6.0,78,0.00,,,0.00,,2013-04-27 15:22:00,
2013-04-27 10:33:00,66.0,59.0,29.74,West,279,1.0,5.0,78,0.00,,,0.00,,2013-04-27 15:33:00,
2013-04-27 10:42:00,66.0,59.0,29.74,West,279,1.0,5.0,78,0.00,,,0.00,,2013-04-27 15:42:00,
2013-04-27 10:53:00,67.0,59.0,29.75,NW,309,1.0,8.0,76,0.00,,,0.00,,2013-04-27 15:53:00,
2013-04-27 11:03:00,68.0,59.0,29.75,NW,324,2.0,8.0,72,0.00,,,0.00,,2013-04-27 16:03:00,
2013-04-27 11:13:00,68.0,59.0,29.75,NW,324,2.0,8.0,72,0.00,,,0.00,,2013-04-27 16:13:00,
2013-04-27 11:22:00,68.0,59.0,29.76,NNW,346,3.0,10.0,73,0.00,,,0.00,,2013-04-27 16:22:00,
2013-04-27 11:32:00,69.0,59.0,29.78,NW,309,3.0,9.0,71,0.00,,,0.00,,2013-04-27 16:32:00,
2013-04-27 11:42:00,69.0,59.0,29.78,NW,309,3.0,9.0,71,0.00,,,0.00,,2013-04-27 16:42:00,
2013-04-27 11:53:00,68.0,59.0,29.78,NNW,338,2.0,8.0,72,0.00,,,0.00,,2013-04-27 16:53:00,
2013-04-27 12:02:00,70.0,59.0,29.78,NW,325,2.0,10.0,69,0.00,,,0.00,,2013-04-27 17:02:00,
2013-04-27 12:12:00,70.0,59.0,29.78,NW,325,2.0,10.0,69,0.00,,,0.00,,2013-04-27 17:12:00,
2013-04-27 12:22:00,68.0,58.0,29.78,West,272,1.0,7.0,70,0.00,,,0.00,,2013-04-27 17:22:00,
2013-04-27 12:32:00,69.0,58.0,29.78,WNW,284,3.0,11.0,69,0.00,,,0.00,,2013-04-27 17:32:00,
2013-04-27 12:42:00,69.0,58.0,29.78,WNW,284,3.0,11.0,69,0.00,,,0.00,,2013-04-27 17:42:00,
2013-04-27 12:53:00,70.0,59.0,29.78,NNW,327,2.0,11.0,68,0.00,,,0.00,,2013-04-27 17:53:00,
2013-04-27 13:02:00,70.0,59.0,29.78,NW,315,3.0,9.0,67,0.00,,,0.00,,2013-04-27 18:02:00,
2013-04-27 13:12:00,70.0,59.0,29.78,NW,315,3.0,9.0,67,0.00,,,0.00,,2013-04-27 18:12:00,
2013-04-27 13:22:00,70.0,59.0,29.77,NNW,343,2.0,10.0,67,0.00,,,0.00,,2013-04-27 18:22:00,
2013-04-27 13:32:00,70.0,59.0,29.77,NW,309,1.0,8.0,67,0.00,,,0.00,,2013-04-27 18:32:00,
2013-04-27 13:42:00,70.0,59.0,29.77,NW,309,1.0,8.0,67,0.00,,,0.00,,2013-04-27 18:42:00,
2013-04-27 13:52:00,70.0,57.0,29.77,NNW,348,3.0,8.0,64,0.00,,,0.00,,2013-04-27 18:52:00,
2013-04-27 14:02:00,69.0,57.0,29.76,West,261,1.0,9.0,65,0.00,,,0.00,,2013-04-27 19:02:00,
2013-04-27 14:11:00,69.0,57.0,29.76,West,261,1.0,9.0,65,0.00,,,0.00,,2013-04-27 19:11:00,
2013-04-27 14:21:00,71.0,57.0,29.75,NNW,328,2.0,10.0,62,0.00,,,0.00,,2013-04-27 19:21:00,
2013-04-27 14:32:00,70.0,57.0,29.75,NNW,343,2.0,8.0,63,0.00,,,0.00,,2013-04-27 19:32:00,
2013-04-27 14:42:00,70.0,57.0,29.75,NNW,343,2.0,8.0,63,0.00,,,0.00,,2013-04-27 19:42:00,
2013-04-27 14:53:00,72.0,58.0,29.74,North,5,2.0,7.0,61,0.00,,,0.00,,2013-04-27 19:53:00,
2013-04-27 15:02:00,71.0,57.0,29.73,West,267,1.0,6.0,61,0.00,,,0.00,,2013-04-27 20:02:00,
2013-04-27 15:11:00,71.0,57.0,29.73,West,267,1.0,6.0,61,0.00,,,0.00,,2013-04-27 20:11:00,
2013-04-27 15:21:00,71.0,57.0,29.73,NW,311,0.0,6.0,62,0.00,,,0.00,,2013-04-27 20:21:00,
2013-04-27 15:32:00,73.0,56.0,29.72,WNW,290,1.0,8.0,56,0.00,,,0.00,,2013-04-27 20:32:00,
2013-04-27 15:42:00,73.0,56.0,29.72,WNW,290,1.0,8.0,56,0.00,,,0.00,,2013-04-27 20:42:00,
2013-04-27 15:52:00,75.0,60.0,29.72,NNW,333,1.0,7.0,59,0.00,,,0.00,,2013-04-27 20:52:00,
2013-04-27 16:02:00,74.0,57.0,29.71,West,261,2.0,7.0,56,0.00,,,0.00,,2013-04-27 21:02:00,
2013-04-27 16:11:00,74.0,57.0,29.71,West,261,2.0,7.0,56,0.00,,,0.00,,2013-04-27 21:11:00,
2013-04-27 16:21:00,74.0,57.0,29.70,NNE,17,1.0,8.0,56,0.00,,,0.00,,2013-04-27 21:21:00,
2013-04-27 16:33:00,75.0,57.0,29.70,NNW,327,1.0,6.0,53,0.00,,,0.00,,2013-04-27 21:33:00,
2013-04-27 16:42:00,75.0,57.0,29.70,NNW,327,1.0,6.0,53,0.00,,,0.00,,2013-04-27 21:42:00,
2013-04-27 16:53:00,74.0,57.0,29.69,North,360,2.0,7.0,55,0.00,,,0.00,,2013-04-27 21:53:00,
2013-04-27 17:02:00,74.0,58.0,29.69,NNE,33,0.0,6.0,57,0.00,,,0.00,,2013-04-27 22:02:00,
2013-04-27 17:12:00,74.0,58.0,29.69,NNE,33,0.0,6.0,57,0.00,,,0.00,,2013-04-27 22:12:00,
2013-04-27 17:22:00,74.0,57.0,29.69,NNW,346,1.0,6.0,56,0.00,,,0.00,,2013-04-27 22:22:00,
2013-04-27 17:32:00,74.0,57.0,29.68,West,278,1.0,7.0,55,0.00,,,0.00,,2013-04-27 22:32:00,
2013-04-27 17:42:00,74.0,57.0,29.68,West,278,1.0,7.0,55,0.00,,,0.00,,2013-04-27 22:42:00,
2013-04-27 17:52:00,75.0,57.0,29.67,North,5,1.0,6.0,54,0.00,,,0.00,,2013-04-27 22:52:00,
2013-04-27 18:02:00,74.0,57.0,29.68,NNW,348,2.0,7.0,55,0.00,,,0.00,,2013-04-27 23:02:00,
2013-04-27 18:11:00,74.0,57.0,29.68,NNW,348,2.0,7.0,55,0.00,,,0.00,,2013-04-27 23:11:00,
2013-04-27 18:22:00,74.0,57.0,29.68,West,268,0.0,3.0,56,0.00,,,0.00,,2013-04-27 23:22:00,
2013-04-27 18:32:00,74.0,57.0,29.67,NNW,341,1.0,6.0,55,0.00,,,0.00,,2013-04-27 23:32:00,
2013-04-27 18:42:00,74.0,57.0,29.67,NNW,341,1.0,6.0,55,0.00,,,0.00,,2013-04-27 23:42:00,
2013-04-27 18:52:00,73.0,56.0,29.68,East,90,0.0,3.0,56,0.00,,,0.00,,2013-04-27 23:52:00,
2013-04-27 19:01:00,73.0,57.0,29.68,NE,42,0.0,1.0,57,0.00,,,0.00,,2013-04-28 00:01:00,
2013-04-27 19:11:00,73.0,57.0,29.68,NE,42,0.0,1.0,57,0.00,,,0.00,,2013-04-28 00:11:00,
2013-04-27 19:21:00,73.0,57.0,29.67,NNW,347,2.0,7.0,57,0.00,,,0.00,,2013-04-28 00:21:00,
2013-04-27 19:32:00,72.0,56.0,29.66,North,355,1.0,6.0,58,0.00,,,0.00,,2013-04-28 00:32:00,
2013-04-27 19:42:00,72.0,56.0,29.66,North,355,1.0,6.0,58,0.00,,,0.00,,2013-04-28 00:42:00,
2013-04-27 19:52:00,71.0,55.0,29.65,NW,322,2.0,8.0,58,0.00,,,0.00,,2013-04-28 00:52:00,
2013-04-27 20:01:00,71.0,57.0,29.65,NNE,20,0.0,4.0,61,0.00,,,0.00,,2013-04-28 01:01:00,
2013-04-27 20:11:00,71.0,57.0,29.65,NNE,20,0.0,4.0,61,0.00,,,0.00,,2013-04-28 01:11:00,
2013-04-27 20:21:00,70.0,56.0,29.64,NNW,329,0.0,4.0,62,0.00,,,0.00,,2013-04-28 01:21:00,
2013-04-27 20:31:00,69.0,56.0,29.65,North,9,0.0,4.0,63,0.00,,,0.00,,2013-04-28 01:31:00,
2013-04-27 20:42:00,69.0,56.0,29.65,North,9,0.0,4.0,63,0.00,,,0.00,,2013-04-28 01:42:00,
2013-04-27 20:52:00,68.0,56.0,29.64,NNE,19,0.0,3.0,66,0.00,,,0.00,,2013-04-28 01:52:00,
2013-04-27 21:02:00,67.0,56.0,29.65,NNE,19,0.0,1.0,69,0.00,,,0.00,,2013-04-28 02:02:00,
2013-04-27 21:12:00,67.0,56.0,29.65,NNE,19,0.0,1.0,69,0.00,,,0.00,,2013-04-28 02:12:00,
2013-04-27 21:22:00,65.0,56.0,29.66,NNE,19,0.0,0.0,72,0.00,,,0.00,,2013-04-28 02:22:00,
2013-04-27 21:32:00,64.0,56.0,29.66,NNE,19,0.0,1.0,74,0.00,,,0.00,,2013-04-28 02:32:00,
2013-04-27 21:42:00,64.0,56.0,29.66,NNE,19,0.0,1.0,74,0.00,,,0.00,,2013-04-28 02:42:00,
2013-04-27 21:52:00,64.0,56.0,29.67,NNE,19,0.0,0.0,75,0.00,,,0.00,,2013-04-28 02:52:00,
2013-04-27 22:01:00,63.0,56.0,29.67,NNE,19,0.0,0.0,77,0.00,,,0.00,,2013-04-28 03:01:00,
2013-04-27 22:11:00,63.0,56.0,29.67,NNE,19,0.0,0.0,77,0.00,,,0.00,,2013-04-28 03:11:00,
2013-04-27 22:21:00,62.0,55.0,29.67,NNE,19,0.0,0.0,79,0.00,,,0.00,,2013-04-28 03:21:00,
2013-04-27 22:32:00,62.0,55.0,29.68,NNE,19,0.0,0.0,79,0.00,,,0.00,,2013-04-28 03:32:00,
2013-04-27 22:43:00,62.0,55.0,29.68,NNE,19,0.0,0.0,79,0.00,,,0.00,,2013-04-28 03:43:00,
2013-04-27 22:53:00,62.0,56.0,29.68,NNE,19,0.0,0.0,81,0.00,,,0.00,,2013-04-28 03:53:00,
2013-04-27 23:02:00,61.0,55.0,29.68,NNE,19,0.0,0.0,81,0.00,,,0.00,,2013-04-28 04:02:00,
2013-04-27 23:13:00,61.0,55.0,29.68,NNE,19,0.0,0.0,81,0.00,,,0.00,,2013-04-28 04:13:00,
2013-04-27 23:22:00,61.0,55.0,29.68,NNE,19,0.0,0.0,82,0.00,,,0.00,,2013-04-28 04:22:00,
2013-04-27 23:32:00,60.0,55.0,29.68,NNE,19,0.0,0.0,84,0.00,,,0.00,,2013-04-28 04:32:00,
2013-04-27 23:42:00,60.0,55.0,29.68,NNE,19,0.0,0.0,84,0.00,,,0.00,,2013-04-28 04:42:00,
2013-04-27 23:53:00,60.0,55.0,29.68,NNE,19,0.0,0.0,84,0.00,,,0.00,,2013-04-28 04:53:00,